Terminal Aerodrome Forecast
Issued by NWS

Home | Current Version | Previous Version | Text Only | Print | Product List | Glossary On
Versions: 1 2 3 4 5 6 7 8 9 10 11 12
000
FTUS46 KMTR 191720
TAFOAK
TAF
KOAK 191720Z 1918/2024 26009KT P6SM FEW014
     FM192100 27013KT P6SM FEW025
     FM200400 28008KT P6SM FEW020
     FM200900 VRB03KT P6SM SCT018
     FM201700 24005KT P6SM FEW014
     FM202100 28011KT P6SM FEW014=

USA.gov is the U.S. government's official web portal to all federal, state and local government web resources and services.